Time;durP1;ratioP1;P1;durP2;ratioP2;P2;SDS_P1;SDS_P2;PMS_P1;PMS_P2;Temp;Humidity;BMP_temperature;BMP_pressure;BME280_temperature;BME280_humidity;BME280_pressure;Samples;Min_cycle;Max_cycle;Signal;HPM_P1;HPM_P2
2020/12/02 00:00:27;;;;;;;20.75;11.40;;;;;;;5.51;93.41;102066.91;4174805;27;20062;-86
2020/12/02 00:03:28;;;;;;;21.05;12.25;;;;;;;5.55;93.09;102072.94;4104380;28;20068;-84
2020/12/02 00:05:57;;;;;;;21.50;11.70;;;;;;;5.59;93.34;102070.09;4094023;28;20192;-88
2020/12/02 00:08:37;;;;;;;28.45;11.93;;;;;;;5.61;92.14;102073.53;4228803;27;20062;-88
2020/12/02 00:11:08;;;;;;;19.50;11.15;;;;;;;5.61;92.66;102070.88;4149488;27;20072;-87
2020/12/02 00:13:38;;;;;;;24.30;11.73;;;;;;;5.64;92.66;102074.31;4081448;28;20077;-87
2020/12/02 00:16:07;;;;;;;23.27;11.52;;;;;;;5.64;92.89;102068.97;4388450;27;20070;-88
2020/12/02 00:18:34;;;;;;;23.83;12.27;;;;;;;5.58;93.03;102076.34;4347925;27;20460;-88
2020/12/02 00:21:08;;;;;;;21.80;12.55;;;;;;;5.56;92.36;102069.34;4390109;27;20137;-86
2020/12/02 00:23:44;;;;;;;21.73;12.75;;;;;;;5.56;93.25;102086.22;4261364;27;20054;-88
2020/12/02 00:26:14;;;;;;;21.15;11.73;;;;;;;5.54;93.05;102076.59;4090810;35;20046;-88
2020/12/02 00:28:39;;;;;;;24.50;11.57;;;;;;;5.54;92.80;102072.09;4091513;35;20062;-87
2020/12/02 00:31:08;;;;;;;24.88;13.35;;;;;;;5.55;92.71;102076.50;4091386;35;20058;-87
2020/12/02 00:33:39;;;;;;;24.63;13.02;;;;;;;5.56;92.40;102064.88;4092773;35;20058;-87
2020/12/02 00:36:09;;;;;;;21.02;12.40;;;;;;;5.56;92.28;102070.22;4258914;27;20824;-87
2020/12/02 00:38:45;;;;;;;;;;;;;;;5.57;92.65;102061.25;4326546;27;20072;-88
2020/12/02 00:41:11;;;;;;;20.15;11.80;;;;;;;5.69;92.47;102074.97;4189883;27;20032;-87
2020/12/02 00:43:37;;;;;;;23.77;13.23;;;;;;;5.65;91.89;102068.03;4196700;27;20061;-90
2020/12/02 00:46:07;;;;;;;25.13;12.65;;;;;;;5.55;91.87;102065.81;4099665;28;20074;-88
2020/12/02 00:48:43;;;;;;;25.50;13.10;;;;;;;5.42;92.52;102067.34;4222289;27;20066;-89
2020/12/02 00:51:09;;;;;;;22.75;11.95;;;;;;;5.47;92.34;102059.97;4090730;28;20058;-87
2020/12/02 00:53:57;;;;;;;21.65;12.38;;;;;;;5.47;92.34;102059.97;4114025;28;20086;-88
2020/12/02 00:56:40;;;;;;;23.88;12.65;;;;;;;5.47;92.76;102054.63;4347814;27;20065;-87
2020/12/02 00:59:14;;;;;;;25.55;12.73;;;;;;;5.46;92.17;102057.38;4097736;28;20058;-87
2020/12/02 01:01:48;;;;;;;24.70;13.55;;;;;;;5.46;92.71;102060.91;4218043;27;20058;-87
2020/12/02 01:04:22;;;;;;;25.20;13.52;;;;;;;5.41;92.39;102055.78;4089271;28;20057;-87
2020/12/02 01:06:54;;;;;;;22.75;12.75;;;;;;;5.34;93.08;102058.84;4174546;27;20507;-89
2020/12/02 01:09:23;;;;;;;26.77;12.98;;;;;;;5.36;93.10;102056.94;4117741;27;20058;-87
2020/12/02 01:12:02;;;;;;;26.23;12.60;;;;;;;5.37;93.05;102062.22;4087062;28;20077;-88
2020/12/02 01:14:37;;;;;;;24.25;12.70;;;;;;;5.42;92.81;102062.00;4200359;27;20159;-88
2020/12/02 01:17:14;;;;;;;26.40;13.85;;;;;;;5.43;92.05;102047.72;4090202;28;20054;-87
2020/12/02 01:19:43;;;;;;;24.55;12.80;;;;;;;5.34;92.82;102048.16;4083029;28;20071;-87
2020/12/02 01:22:23;;;;;;;22.75;13.35;;;;;;;5.33;92.89;102051.75;4175854;27;20054;-88
2020/12/02 01:25:11;;;;;;;26.52;13.20;;;;;;;5.31;93.26;102051.81;4146563;27;20074;-87
2020/12/02 01:28:03;;;;;;;28.52;14.20;;;;;;;5.28;93.60;102049.31;4102850;28;20187;-89
2020/12/02 01:30:35;;;;;;;28.10;13.88;;;;;;;5.31;93.31;102054.50;4279600;27;20065;-88
2020/12/02 01:33:01;;;;;;;27.67;13.13;;;;;;;5.28;93.08;102053.78;4217756;27;20078;-89
2020/12/02 01:35:40;;;;;;;29.40;13.85;;;;;;;5.32;93.61;102055.38;4207523;27;20331;-88
2020/12/02 01:38:11;;;;;;;23.58;14.18;;;;;;;5.32;92.98;102053.56;4095668;28;20050;-88
2020/12/02 01:41:11;;;;;;;28.50;13.98;;;;;;;5.31;92.89;102051.81;4197838;27;20124;-88
2020/12/02 01:43:51;;;;;;;24.65;13.63;;;;;;;5.23;93.29;102057.53;4253665;27;20062;-88
2020/12/02 01:46:25;;;;;;;28.75;14.18;;;;;;;5.23;93.52;102062.88;4081346;28;20069;-89
2020/12/02 01:49:41;;;;;;;29.42;14.40;;;;;;;5.12;94.07;102065.16;4163862;27;20069;-88
2020/12/02 01:52:29;;;;;;;29.25;14.68;;;;;;;5.18;93.99;102061.34;4107651;28;20065;-88
2020/12/02 01:55:18;;;;;;;27.90;14.18;;;;;;;5.31;93.36;102064.31;4209599;27;20077;-88
2020/12/02 01:57:51;;;;;;;31.55;14.80;;;;;;;5.16;94.08;102063.25;4091957;35;20117;-88
2020/12/02 02:00:29;;;;;;;27.83;14.38;;;;;;;5.15;93.84;102065.03;4089675;35;20078;-88
2020/12/02 02:03:20;;;;;;;27.98;13.90;;;;;;;5.13;94.12;102063.38;4177818;27;20061;-87
2020/12/02 02:06:10;;;;;;;29.02;14.20;;;;;;;5.18;93.87;102059.56;4095354;28;20054;-88
2020/12/02 02:08:42;;;;;;;30.23;14.10;;;;;;;5.22;94.05;102060.28;4218069;27;20058;-89
2020/12/02 02:11:09;;;;;;;31.10;15.18;;;;;;;5.19;93.42;102055.09;4222528;27;20124;-89
2020/12/02 02:14:05;;;;;;;33.13;15.30;;;;;;;5.12;94.37;102054.50;4102599;28;20070;-88
2020/12/02 02:16:37;;;;;;;31.48;15.30;;;;;;;5.16;94.19;102052.56;4194530;27;20051;-88
2020/12/02 02:19:03;;;;;;;30.92;14.35;;;;;;;5.12;93.83;102053.63;4159600;27;20476;-88
2020/12/02 02:21:34;;;;;;;30.95;15.38;;;;;;;5.06;94.29;102055.66;4173967;27;20488;-88
2020/12/02 02:24:00;;;;;;;33.30;14.73;;;;;;;5.06;94.50;102052.13;4175649;27;20121;-88
2020/12/02 02:26:41;;;;;;;32.28;15.98;;;;;;;5.05;94.32;102053.03;4103671;27;20511;-87
2020/12/02 02:29:23;;;;;;;28.65;14.70;;;;;;;5.09;93.63;102051.97;4283294;27;20058;-88
2020/12/02 02:32:01;;;;;;;31.63;15.82;;;;;;;5.09;93.86;102055.53;4246296;27;20066;-88
2020/12/02 02:34:41;;;;;;;34.50;16.52;;;;;;;5.07;94.02;102061.84;4144110;27;20165;-89
2020/12/02 02:37:24;;;;;;;;;;;;;;;5.16;93.81;102057.91;4209872;27;20062;-88
2020/12/02 02:40:28;;;;;;;31.77;15.65;;;;;;;5.02;94.07;102055.84;4191778;27;19962;-89
2020/12/02 02:43:02;;;;;;;33.67;15.52;;;;;;;5.01;94.06;102054.16;4294086;27;20073;-90
2020/12/02 02:45:45;;;;;;;32.70;15.70;;;;;;;5.04;94.01;102046.84;4103955;28;20153;-88
2020/12/02 02:48:15;;;;;;;33.50;15.65;;;;;;;5.08;94.25;102042.25;4283161;27;20058;-87
2020/12/02 02:50:40;;;;;;;30.40;16.52;;;;;;;5.13;93.81;102034.03;4237799;27;20098;-86
2020/12/02 02:53:38;;;;;;;33.90;15.70;;;;;;;5.04;94.16;102036.19;4094364;28;20586;-89
2020/12/02 02:56:21;;;;;;;31.67;15.02;;;;;;;4.96;94.20;102032.13;4187576;28;20113;-89
2020/12/02 02:59:22;;;;;;;29.77;15.68;;;;;;;4.98;94.49;102030.28;4101666;28;20062;-88
2020/12/02 03:02:11;;;;;;;34.22;16.27;;;;;;;5.01;94.43;102033.66;4182514;27;20399;-87
2020/12/02 03:04:37;;;;;;;32.53;16.10;;;;;;;4.99;93.96;102027.53;4161930;27;20140;-88
2020/12/02 03:10:19;;;;;;;33.13;15.25;;;;;;;5.10;93.36;102019.00;4243319;27;20121;-88
2020/12/02 03:12:58;;;;;;;32.65;15.02;;;;;;;4.99;94.24;102024.88;4276245;27;20369;-89
2020/12/02 03:15:29;;;;;;;33.05;16.70;;;;;;;4.96;94.04;102026.78;4082208;28;20050;-88
2020/12/02 03:18:20;;;;;;;31.30;15.77;;;;;;;4.90;93.90;102025.25;4154777;27;20160;-89
2020/12/02 03:21:22;;;;;;;32.08;15.80;;;;;;;4.94;94.26;102023.34;4092427;35;20050;-89
2020/12/02 03:24:00;;;;;;;34.03;16.02;;;;;;;4.97;94.63;102018.72;4090250;28;20069;-87
2020/12/02 03:26:39;;;;;;;;;;;;;;;;;;;;;
2020/12/02 03:29:11;;;;;;;38.63;16.30;;;;;;;4.94;93.98;102015.34;4182407;27;20793;-87
2020/12/02 03:32:00;;;;;;;32.58;16.00;;;;;;;4.90;94.68;102012.81;4222832;27;20078;-87
2020/12/02 03:36:15;;;;;;;34.58;14.43;;;;;;;4.93;94.72;102011.78;4137232;28;20050;-87
2020/12/02 03:39:32;;;;;;;30.45;14.80;;;;;;;4.89;94.20;102016.41;4483506;27;20856;-89
2020/12/02 03:42:07;;;;;;;34.15;15.32;;;;;;;4.87;94.70;102018.28;4103798;28;20121;-89
2020/12/02 03:44:35;;;;;;;32.53;15.68;;;;;;;4.82;94.68;102011.44;4089207;28;20050;-88
2020/12/02 03:47:10;;;;;;;33.92;17.20;;;;;;;4.80;94.82;102005.28;4245435;27;20199;-88
2020/12/02 03:49:36;;;;;;;31.20;15.20;;;;;;;4.81;94.92;102009.69;4106508;28;20101;-88
2020/12/02 03:52:06;;;;;;;30.27;15.65;;;;;;;4.84;94.60;102002.41;4105783;28;20495;-88
2020/12/02 03:55:00;;;;;;;34.35;14.90;;;;;;;4.90;94.38;102001.25;4082079;28;20070;-88
2020/12/02 03:57:45;;;;;;;33.83;15.57;;;;;;;4.90;94.61;102002.16;4141494;27;20109;-85
2020/12/02 04:00:26;;;;;;;35.20;16.17;;;;;;;4.82;94.72;101993.63;4102790;35;20104;-88
2020/12/02 04:03:31;;;;;;;32.20;17.17;;;;;;;4.75;94.83;101997.50;4098757;28;20547;-88
2020/12/02 04:05:56;;;;;;;33.05;15.52;;;;;;;4.73;95.22;102000.25;4270690;27;20069;-88
2020/12/02 04:08:52;;;;;;;38.03;16.67;;;;;;;4.78;94.91;101996.50;4103158;28;20078;-88
2020/12/02 04:11:39;;;;;;;35.90;17.52;;;;;;;4.77;95.40;101995.66;4271833;27;20074;-91
2020/12/02 04:14:07;;;;;;;28.33;15.35;;;;;;;4.84;94.83;102002.41;4189100;27;20109;-87
2020/12/02 04:16:38;;;;;;;35.38;15.70;;;;;;;4.84;94.96;101988.22;4254770;27;20431;-88
2020/12/02 04:19:11;;;;;;;34.65;16.80;;;;;;;4.77;94.57;101995.66;4238784;27;20076;-89
2020/12/02 04:21:43;;;;;;;35.72;17.75;;;;;;;4.79;94.86;101995.56;4186749;27;20058;-87
2020/12/02 04:24:20;;;;;;;33.10;15.80;;;;;;;4.84;94.60;101999.72;4188424;27;20077;-85
2020/12/02 04:26:58;;;;;;;32.17;15.73;;;;;;;4.87;94.55;101999.63;4094717;28;20167;-87
2020/12/02 04:29:26;;;;;;;33.10;15.98;;;;;;;4.84;94.57;102001.56;4105076;28;20488;-87
2020/12/02 04:31:57;;;;;;;33.45;16.05;;;;;;;4.88;94.57;101989.81;4090296;28;20079;-89
2020/12/02 04:35:08;;;;;;;35.78;16.83;;;;;;;4.85;94.92;101996.13;4109902;28;20078;-89
2020/12/02 04:37:49;;;;;;;32.75;16.80;;;;;;;4.86;94.24;101992.53;4112465;27;20132;-87
2020/12/02 04:40:44;;;;;;;35.75;16.70;;;;;;;4.89;94.61;101988.88;4140982;27;20073;-86
2020/12/02 04:43:17;;;;;;;35.25;17.27;;;;;;;4.89;94.43;101989.72;4095024;28;20483;-86
2020/12/02 04:45:54;;;;;;;33.72;17.63;;;;;;;4.94;93.98;101994.00;4093573;28;21036;-85
2020/12/02 04:48:43;;;;;;;32.92;16.27;;;;;;;4.93;94.25;101985.09;4337344;27;20061;-86
2020/12/02 04:51:24;;;;;;;;;;;;;;;;;;;;;
2020/12/02 04:54:00;;;;;;;35.97;15.68;;;;;;;4.84;94.73;101981.06;4194707;27;19987;-84
2020/12/02 04:57:18;;;;;;;37.50;17.13;;;;;;;4.79;94.61;101974.25;4318624;27;20547;-88
2020/12/02 05:00:29;;;;;;;33.13;15.98;;;;;;;4.75;94.59;101976.16;4330933;27;20065;-90
2020/12/02 05:03:23;;;;;;;;;;;;;;;4.83;94.37;101968.69;4058768;28;20133;-88
2020/12/02 05:06:36;;;;;;;32.78;16.77;;;;;;;4.81;94.52;101972.34;4116579;27;19977;-85
2020/12/02 05:09:27;;;;;;;31.38;15.55;;;;;;;4.90;94.12;101970.13;4170737;27;20141;-86
2020/12/02 05:12:21;;;;;;;31.40;15.85;;;;;;;5.00;93.93;101981.22;4118142;28;20061;-88
2020/12/02 05:14:58;;;;;;;33.92;16.35;;;;;;;5.04;93.30;101971.28;4433693;27;20058;-84
2020/12/02 05:17:39;;;;;;;33.30;15.45;;;;;;;4.93;93.64;101973.56;4196306;27;20053;-86
2020/12/02 05:20:34;;;;;;;33.92;17.05;;;;;;;4.83;94.57;101979.34;4411188;27;20109;-86
2020/12/02 05:23:32;;;;;;;33.97;16.52;;;;;;;4.78;95.13;101981.34;4184209;27;20053;-87
2020/12/02 05:26:29;;;;;;;;;;;;;;;;;;;;;
2020/12/02 05:28:57;;;;;;;35.53;17.42;;;;;;;4.72;94.90;101966.50;4221511;27;20062;-87
2020/12/02 05:31:29;;;;;;;35.15;16.85;;;;;;;4.80;94.99;101968.81;4092265;27;20060;-87
2020/12/02 05:34:38;;;;;;;36.35;18.15;;;;;;;4.83;94.41;101963.34;4106318;28;20439;-87
2020/12/02 05:37:49;;;;;;;;;;;;;;;;;;;;;
2020/12/02 05:40:52;;;;;;;32.90;17.10;;;;;;;4.81;95.10;101965.19;4117654;28;20598;-89
2020/12/02 05:43:46;;;;;;;30.92;15.77;;;;;;;4.87;94.24;101966.72;4260276;27;20055;-86
2020/12/02 05:47:18;;;;;;;35.20;15.27;;;;;;;4.84;94.72;101966.88;4084322;28;20057;-87
2020/12/02 05:50:10;;;;;;;33.38;16.48;;;;;;;4.86;94.02;101963.19;4221265;27;20054;-88
2020/12/02 05:52:47;;;;;;;36.53;16.55;;;;;;;4.79;94.48;101960.91;4180764;27;20480;-86
2020/12/02 06:02:45;;;;;;;;;;;;;;;;;;;;;
2020/12/02 06:05:17;;;;;;;32.95;16.35;;;;;;;4.67;95.11;101936.53;4115478;28;20065;-86
2020/12/02 06:08:31;;;;;;;34.17;15.77;;;;;;;4.70;94.91;101935.53;4337736;27;20066;-88
2020/12/02 06:18:31;;;;;;;31.60;15.77;;;;;;;4.73;94.59;101927.38;4068202;28;20067;-87
2020/12/02 06:21:41;;;;;;;35.58;17.08;;;;;;;4.71;94.96;101929.22;4153368;27;20070;-86
2020/12/02 06:30:39;;;;;;;37.97;16.27;;;;;;;4.67;94.81;101930.34;4082441;27;20171;-86
2020/12/02 06:33:34;;;;;;;39.85;17.95;;;;;;;4.69;94.72;101939.13;4093628;28;20054;-85
2020/12/02 06:36:21;;;;;;;35.38;15.73;;;;;;;4.67;95.06;101933.84;4191304;27;20484;-86
2020/12/02 06:38:52;;;;;;;40.15;17.42;;;;;;;4.71;94.96;101932.78;4207805;27;20066;-86
2020/12/02 06:41:38;;;;;;;41.17;16.35;;;;;;;4.75;94.65;101938.81;4253357;27;20073;-87
2020/12/02 06:44:34;;;;;;;36.90;17.35;;;;;;;4.78;94.84;101933.34;4083192;28;20046;-87
2020/12/02 06:47:27;;;;;;;37.30;16.20;;;;;;;4.86;94.28;101922.34;4167295;27;20054;-87
2020/12/02 06:50:25;;;;;;;38.28;16.30;;;;;;;4.79;94.17;101928.91;4417244;27;20103;-88
2020/12/02 06:54:00;;;;;;;;;;;;;;;;;;;;;
2020/12/02 06:57:05;;;;;;;41.15;16.58;;;;;;;4.85;93.23;101920.59;4063411;35;20460;-86
2020/12/02 07:00:15;;;;;;;39.53;16.45;;;;;;;4.81;93.62;101917.19;4202319;27;20054;-85
2020/12/02 07:02:47;;;;;;;;;;;;;;;4.95;93.28;101918.34;4123174;28;20121;-86
2020/12/02 07:05:46;;;;;;;44.80;17.95;;;;;;;4.81;93.29;101905.66;4108420;28;20369;-87
2020/12/02 07:08:33;;;;;;;41.85;16.58;;;;;;;4.72;93.40;101910.50;4109913;28;20060;-86
2020/12/02 07:11:25;;;;;;;43.03;16.80;;;;;;;4.73;93.92;101906.91;4172371;27;20065;-87
2020/12/02 07:13:54;;;;;;;42.35;16.98;;;;;;;4.70;94.43;101908.84;4175579;27;20070;-86
2020/12/02 07:16:47;;;;;;;51.58;19.48;;;;;;;4.69;94.73;101907.13;4066336;35;20409;-87
2020/12/02 07:19:22;;;;;;;49.70;18.17;;;;;;;4.65;94.72;101910.84;4134671;27;20054;-85
2020/12/02 07:22:06;;;;;;;50.30;18.20;;;;;;;4.57;95.00;101909.41;4078497;35;20932;-86
2020/12/02 07:24:52;;;;;;;50.85;19.90;;;;;;;4.67;94.84;101909.00;4149616;27;20529;-86
2020/12/02 07:27:20;;;;;;;47.28;18.10;;;;;;;4.71;94.76;101914.13;4159854;27;20110;-85
2020/12/02 07:33:51;;;;;;;43.72;17.35;;;;;;;4.73;94.49;101916.72;4060026;35;20062;-86
2020/12/02 07:36:53;;;;;;;;;;;;;;;;;;;;;
2020/12/02 07:56:21;;;;;;;;;;;;;;;;;;;;;
2020/12/02 08:41:16;;;;;;;37.23;16.60;;;;;;;4.78;93.74;101876.47;4114495;28;20132;-86
2020/12/02 08:43:50;;;;;;;41.22;16.00;;;;;;;4.77;94.17;101867.63;4199010;27;20181;-86
2020/12/02 08:57:03;;;;;;;41.63;17.13;;;;;;;4.74;94.41;101862.41;4154681;27;20201;-87
2020/12/02 09:04:18;;;;;;;;;;;;;;;;;;;;;
2020/12/02 09:07:53;;;;;;;;;;;;;;;;;;;;;
2020/12/02 09:14:09;;;;;;;38.30;16.38;;;;;;;4.84;93.91;101837.03;4071197;28;20585;-86
2020/12/02 09:55:24;;;;;;;46.45;17.88;;;;;;;4.81;94.88;101793.66;4000267;28;20113;-87
2020/12/02 09:58:43;;;;;;;49.25;18.15;;;;;;;4.91;95.17;101790.44;4142196;28;20572;-89
2020/12/02 10:01:40;;;;;;;42.50;17.73;;;;;;;4.90;94.73;101788.72;4190948;28;20072;-86
2020/12/02 10:04:29;;;;;;;45.92;17.83;;;;;;;4.80;94.60;101782.13;4263010;28;20135;-86
2020/12/02 10:07:11;;;;;;;47.92;17.33;;;;;;;4.88;94.32;101774.59;4362393;27;20071;-87
2020/12/02 10:13:13;;;;;;;43.63;18.85;;;;;;;4.77;94.79;101768.94;4108565;28;20046;-87
2020/12/02 10:19:48;;;;;;;44.47;17.50;;;;;;;4.90;94.43;101764.72;4058538;28;21884;-86
2020/12/02 10:23:00;;;;;;;40.53;16.90;;;;;;;4.94;94.41;101768.09;4135061;28;20083;-86
2020/12/02 10:26:16;;;;;;;;;;;;;;;;;;;;;
2020/12/02 10:33:17;;;;;;;;;;;;;;;;;;;;;
2020/12/02 10:35:47;;;;;;;38.42;15.85;;;;;;;4.96;94.41;101752.00;4082829;28;20144;-87
2020/12/02 10:38:41;;;;;;;46.22;17.77;;;;;;;4.89;94.43;101743.47;4069573;28;20619;-86
2020/12/02 10:41:46;;;;;;;38.65;15.57;;;;;;;4.99;94.44;101742.06;4004188;35;20145;-85
2020/12/02 10:44:49;;;;;;;39.55;16.80;;;;;;;5.00;93.79;101741.09;4149211;28;20080;-87
2020/12/02 10:47:42;;;;;;;42.92;16.27;;;;;;;4.98;94.08;101732.31;4212939;27;20070;-87
2020/12/02 10:50:46;;;;;;;44.13;17.33;;;;;;;4.99;93.83;101728.72;4077835;35;20058;-87
2020/12/02 10:54:19;;;;;;;46.92;17.77;;;;;;;5.02;94.74;101728.53;4026876;35;20066;-86
2020/12/02 11:00:13;;;;;;;38.78;15.98;;;;;;;5.06;94.29;101714.13;4014873;28;20072;-88
2020/12/02 11:03:38;;;;;;;;;;;;;;;;;;;;;
2020/12/02 12:02:58;;;;;;;38.80;15.50;;;;;;;5.08;94.00;101620.66;4083899;28;20354;-85
2020/12/02 12:05:57;;;;;;;33.63;15.35;;;;;;;5.12;92.89;101614.16;4098760;28;20054;-85
2020/12/02 12:09:04;;;;;;;40.05;15.38;;;;;;;5.19;93.19;101609.38;4160440;27;20055;-85
2020/12/02 12:19:21;;;;;;;40.05;15.95;;;;;;;5.23;92.80;101606.47;4107623;28;20094;-86
2020/12/02 12:22:57;;;;;;;37.72;17.15;;;;;;;5.11;93.14;101583.13;4071189;28;20068;-86
2020/12/02 12:26:21;;;;;;;42.78;16.95;;;;;;;5.12;92.81;101571.47;4048805;35;20078;-85
2020/12/02 12:29:43;;;;;;;;;;;;;;;;;;;;;
2020/12/02 12:32:09;;;;;;;42.55;16.35;;;;;;;5.18;93.16;101563.16;4197541;28;20213;-85
2020/12/02 12:35:06;;;;;;;52.17;19.05;;;;;;;5.14;93.55;101566.94;4154822;27;20592;-86
2020/12/02 12:38:28;;;;;;;;;;;;;;;;;;;;;
2020/12/02 12:41:24;;;;;;;46.67;16.77;;;;;;;5.04;93.57;101539.03;4168810;27;20067;-87
2020/12/02 12:44:24;;;;;;;44.35;17.33;;;;;;;5.16;94.20;101538.34;4351835;27;20066;-86
2020/12/02 12:50:46;;;;;;;44.00;16.85;;;;;;;5.14;93.39;101529.59;4060920;28;20111;-87
2020/12/02 12:53:42;;;;;;;;;;;;;;;;;;;;;
2020/12/02 12:56:25;;;;;;;;;;;;;;;;;;;;;
2020/12/02 12:58:53;;;;;;;38.50;14.95;;;;;;;5.21;93.26;101516.75;4100885;28;20526;-86
2020/12/02 13:01:24;;;;;;;46.03;17.17;;;;;;;5.12;93.44;101517.25;4076560;28;20057;-88
2020/12/02 13:03:51;;;;;;;42.85;16.40;;;;;;;5.16;93.38;101510.81;4053774;28;20063;-87
2020/12/02 13:06:42;;;;;;;37.17;14.88;;;;;;;5.21;93.48;101506.94;4078336;28;20069;-87
2020/12/02 13:09:24;;;;;;;47.35;17.95;;;;;;;5.16;93.20;101511.66;4376076;27;20547;-87
2020/12/02 13:12:13;;;;;;;42.20;15.45;;;;;;;5.21;93.85;101501.59;4109950;28;20487;-88
2020/12/02 13:19:28;;;;;;;38.33;15.85;;;;;;;5.19;93.37;101494.63;4260153;27;20082;-87
2020/12/02 13:22:32;;;;;;;41.45;16.50;;;;;;;5.23;93.58;101483.69;4084327;28;20145;-87
2020/12/02 13:25:13;;;;;;;38.92;15.95;;;;;;;5.14;94.31;101481.53;4249630;27;20828;-86
2020/12/02 13:28:00;;;;;;;45.35;16.45;;;;;;;5.11;93.99;101471.03;4089765;28;20054;-87
2020/12/02 13:30:59;;;;;;;38.28;16.27;;;;;;;5.08;94.13;101473.88;4161628;27;20061;-87
2020/12/02 13:33:37;;;;;;;41.63;15.07;;;;;;;5.09;94.03;101462.25;4027403;28;20131;-86
2020/12/02 13:36:54;;;;;;;39.40;16.02;;;;;;;5.09;94.16;101467.59;4089771;28;20098;-87
2020/12/02 13:39:23;;;;;;;38.75;16.45;;;;;;;5.14;94.32;101465.53;4578274;27;20144;-86
2020/12/02 13:41:59;;;;;;;34.47;15.27;;;;;;;5.17;93.37;101456.50;4087596;28;20069;-88
2020/12/02 13:45:08;;;;;;;;;;;;;;;;;;;;;
2020/12/02 13:47:36;;;;;;;34.60;14.32;;;;;;;5.33;92.41;101460.03;4082577;28;20330;-87
2020/12/02 13:54:02;;;;;;;38.33;15.40;;;;;;;5.15;93.57;101456.56;4063443;28;20070;-88
2020/12/02 13:57:28;;;;;;;34.47;15.35;;;;;;;5.07;93.96;101448.16;4197146;27;20404;-91
2020/12/02 14:00:09;;;;;;;37.97;15.25;;;;;;;5.15;93.96;101450.38;4154078;28;20066;-87
2020/12/02 14:03:12;;;;;;;;;;;;;;;;;;;;;
2020/12/02 14:06:22;;;;;;;;;;;;;;;;;;;;;
2020/12/02 14:12:06;;;;;;;39.30;15.68;;;;;;;4.99;93.92;101431.69;4124965;28;20160;-87
2020/12/02 14:15:15;;;;;;;;;;;;;;;;;;;;;
2020/12/02 14:18:13;;;;;;;41.85;15.95;;;;;;;4.93;94.29;101416.03;4128081;27;20059;-87
2020/12/02 14:20:44;;;;;;;45.92;17.63;;;;;;;4.93;94.34;101416.03;4154305;28;20072;-88
2020/12/02 14:23:48;;;;;;;;;;;;;;;;;;;;;
2020/12/02 14:26:58;;;;;;;40.28;15.27;;;;;;;5.00;94.32;101412.94;4211808;27;20059;-86
2020/12/02 14:36:31;;;;;;;;;;;;;;;;;;;;;
2020/12/02 14:42:49;;;;;;;;;;;;;;;;;;;;;
2020/12/02 14:45:31;;;;;;;37.35;14.30;;;;;;;4.91;93.92;101387.63;4090506;27;20100;-86
2020/12/02 14:48:22;;;;;;;40.42;14.77;;;;;;;4.94;94.06;101380.44;4052394;35;20059;-86
2020/12/02 14:54:28;;;;;;;;;;;;;;;;;;;;;
2020/12/02 15:00:21;;;;;;;37.40;15.10;;;;;;;4.87;93.93;101383.44;4205734;28;20088;-86
2020/12/02 15:03:13;;;;;;;37.70;15.68;;;;;;;4.98;93.31;101387.31;4041815;28;20156;-88
2020/12/02 15:06:39;;;;;;;33.22;13.60;;;;;;;5.01;93.17;101379.97;4061099;35;20076;-86
2020/12/02 15:09:45;;;;;;;40.03;15.13;;;;;;;5.07;93.07;101390.28;4059639;35;20059;-87
2020/12/02 15:12:44;;;;;;;;;;;;;;;;;;;;;
2020/12/02 15:15:22;;;;;;;41.75;15.15;;;;;;;5.09;92.51;101392.88;4022352;28;20484;-86
2020/12/02 15:18:44;;;;;;;38.38;14.93;;;;;;;5.08;92.98;101381.34;4020894;28;20124;-86
2020/12/02 15:21:30;;;;;;;35.67;15.20;;;;;;;5.03;93.48;101372.72;4053450;28;20059;-86
2020/12/02 15:24:17;;;;;;;35.00;13.70;;;;;;;5.01;93.58;101365.78;4104842;28;20062;-86
2020/12/02 15:27:40;;;;;;;;;;;;;;;;;;;;;
2020/12/02 15:30:34;;;;;;;29.52;14.20;;;;;;;5.09;93.65;101360.84;4253360;28;20074;-86
2020/12/02 15:33:33;;;;;;;33.03;14.18;;;;;;;5.06;93.58;101363.72;4291025;27;20489;-85
2020/12/02 15:36:46;;;;;;;;;;;;;;;;;;;;;
2020/12/02 15:43:10;;;;;;;31.23;13.40;;;;;;;5.07;93.40;101341.41;4390940;27;20243;-87
2020/12/02 15:46:11;;;;;;;33.05;13.90;;;;;;;4.92;93.69;101332.50;4087991;28;20105;-86
2020/12/02 15:48:44;;;;;;;34.65;13.15;;;;;;;4.93;93.67;101333.34;4340369;27;20061;-86
2020/12/02 15:51:56;;;;;;;30.77;13.50;;;;;;;4.96;93.93;101318.03;4063920;35;20492;-87
2020/12/02 15:54:54;;;;;;;32.15;14.50;;;;;;;4.94;93.43;101313.75;4058079;35;20065;-85
2020/12/02 15:57:50;;;;;;;31.80;13.93;;;;;;;4.85;94.03;101315.97;4065730;35;20129;-86
2020/12/02 16:00:36;;;;;;;;;;;;;;;;;;;;;
2020/12/02 16:03:30;;;;;;;30.55;13.75;;;;;;;4.98;93.23;101321.47;4067991;35;20077;-86
2020/12/02 16:06:00;;;;;;;29.67;13.30;;;;;;;4.96;93.25;101322.50;4162284;27;20074;-86
2020/12/02 16:08:50;;;;;;;31.23;14.88;;;;;;;4.93;93.74;101322.69;4057048;35;20050;-86
2020/12/02 16:11:18;;;;;;;36.50;17.90;;;;;;;5.03;93.30;101323.88;4056941;28;20051;-86
2020/12/02 16:13:49;;;;;;;31.35;16.95;;;;;;;5.02;93.53;101322.13;4055287;35;20050;-86
2020/12/02 16:16:15;;;;;;;32.58;13.82;;;;;;;4.93;93.49;101301.34;4056098;35;20137;-87
2020/12/02 16:18:40;;;;;;;32.13;15.20;;;;;;;4.88;94.08;101310.47;4055979;35;20046;-86
2020/12/02 16:21:17;;;;;;;32.22;14.73;;;;;;;4.93;94.43;101301.34;4055946;35;20118;-86
2020/12/02 16:23:47;;;;;;;35.08;15.48;;;;;;;5.00;94.26;101298.22;4065770;35;20544;-86
2020/12/02 16:26:13;;;;;;;34.60;14.15;;;;;;;4.88;94.08;101289.13;4157960;27;20038;-86
2020/12/02 16:28:41;;;;;;;37.78;15.23;;;;;;;4.84;94.61;101287.56;4056333;35;20465;-87
2020/12/02 16:31:09;;;;;;;40.83;16.00;;;;;;;4.86;94.26;101279.50;4056587;35;20143;-86
2020/12/02 16:33:46;;;;;;;33.73;15.87;;;;;;;4.79;94.82;101270.16;4158418;27;20050;-86
2020/12/02 16:36:15;;;;;;;37.63;15.35;;;;;;;4.77;95.40;101259.56;4056756;35;20453;-86
2020/12/02 16:38:41;;;;;;;38.83;16.15;;;;;;;4.70;95.24;101258.19;4056252;35;20066;-87
2020/12/02 16:41:33;;;;;;;34.17;15.75;;;;;;;4.70;95.37;101255.53;4148193;27;20142;-86
2020/12/02 16:44:24;;;;;;;44.95;16.08;;;;;;;4.63;95.22;101252.34;4124211;27;20043;-86
2020/12/02 16:47:02;;;;;;;49.83;18.70;;;;;;;4.57;95.24;101256.22;4186013;27;20551;-86
2020/12/02 16:49:43;;;;;;;47.10;18.60;;;;;;;4.52;95.53;101255.63;4155191;27;20055;-86
2020/12/02 16:52:27;;;;;;;40.25;17.25;;;;;;;4.51;95.82;101245.91;4127247;27;20056;-85
2020/12/02 16:55:23;;;;;;;44.20;17.73;;;;;;;4.48;95.62;101243.44;4212202;27;20050;-86
2020/12/02 16:57:51;;;;;;;38.13;15.48;;;;;;;4.47;95.98;101236.38;4079580;27;20082;-86
2020/12/02 17:00:30;;;;;;;41.85;17.60;;;;;;;4.47;95.85;101236.38;4292119;27;20560;-86
2020/12/02 17:03:04;;;;;;;38.13;16.25;;;;;;;4.43;95.81;101239.28;4144729;27;20071;-86
2020/12/02 17:05:30;;;;;;;40.75;17.33;;;;;;;4.49;95.74;101247.81;4123510;27;20062;-85
2020/12/02 17:08:02;;;;;;;50.63;19.63;;;;;;;4.50;95.75;101249.50;4056568;28;20051;-86
2020/12/02 17:10:32;;;;;;;44.40;18.92;;;;;;;4.46;95.72;101245.34;4201499;27;20558;-86
2020/12/02 17:16:50;;;;;;;41.25;17.55;;;;;;;4.47;95.63;101239.03;4419874;27;20845;-86
2020/12/02 17:20:06;;;;;;;;;;;;;;;;;;;;;
2020/12/02 17:23:13;;;;;;;42.45;18.45;;;;;;;4.50;95.82;101238.84;4075811;35;20477;-87
2020/12/02 17:25:56;;;;;;;37.47;17.63;;;;;;;4.41;96.07;101233.22;4137409;27;20058;-86
2020/12/02 17:28:28;;;;;;;39.60;19.00;;;;;;;4.37;96.22;101230.72;4165588;27;20153;-86
2020/12/02 17:31:16;;;;;;;46.33;20.55;;;;;;;4.35;96.47;101221.09;4160530;27;20085;-86
2020/12/02 17:34:15;;;;;;;47.17;18.95;;;;;;;4.39;96.34;101222.63;4064271;28;20129;-85
2020/12/02 17:36:55;;;;;;;47.10;21.58;;;;;;;4.44;96.20;101223.22;4069702;28;20073;-87
2020/12/02 17:39:45;;;;;;;42.55;18.45;;;;;;;4.59;95.90;101228.63;4168624;27;20596;-85
2020/12/02 17:42:31;;;;;;;41.50;18.75;;;;;;;4.48;95.92;101218.59;4289747;27;20126;-86
2020/12/02 17:45:43;;;;;;;47.05;19.45;;;;;;;4.54;96.00;101205.75;4148830;27;20071;-87
2020/12/02 17:48:30;;;;;;;51.47;19.40;;;;;;;4.53;95.84;101213.84;4204698;27;20074;-86
2020/12/02 17:51:35;;;;;;;49.15;20.27;;;;;;;4.53;95.90;101213.84;4136009;27;20078;-89